Terminal Aerodrome Forecast
Issued by NWS

Home | Current Version | Previous Version | Text Only | Print | Product List | Glossary On
Versions: 1 2 3 4 5 6 7 8 9 10 11 12 13 14 15 16 17 18 19 20 21 22
000
FTUS41 KBTV 262333
TAFSLK
TAF
KSLK 262333Z 2700/2724 14006KT P6SM VCSH OVC035
     FM270200 16007KT P6SM VCSH OVC040
     FM270400 17007KT 5SM -FZRA BR OVC060
     FM270900 18007KT 4SM -FZRA BR OVC015 WS020/20035KT
     FM271100 18006KT 3SM -RA BR OVC015
     FM271800 20005KT P6SM VCSH OVC015
     FM272000 20005KT P6SM VCSH OVC010=

USA.gov is the U.S. government's official web portal to all federal, state and local government web resources and services.